Aviation Digital Data Service (ADDS)

Output produced by METARs form (2112 UTC 21 November 2017)
found at http://aviationweather.gov/adds/metars/
 
KCLL 212053Z 00000KT 10SM CLR 23/14 A2986 RMK AO2 SLP110 T02280144 56008